Terminal Aerodrome Forecast
Issued by NWS

Home | Current Version | Previous Version | Text Only | Print | Product List | Glossary On
Versions: 1 2 3 4 5 6 7 8 9 10 11 12 13
000
FTUS43 KMQT 211131
TAFCMX
TAF
KCMX 211131Z 2112/2212 18008KT P6SM BKN200
     FM211600 17011KT P6SM BKN200
     FM211800 17011KT P6SM VCSH BKN200
     FM212100 18011G18KT P6SM BKN080
     FM220100 17009KT P6SM BKN050
     FM221100 20009KT P6SM BKN035=

USA.gov is the U.S. government's official web portal to all federal, state and local government web resources and services.